Time;durP1;ratioP1;P1;durP2;ratioP2;P2;SDS_P1;SDS_P2;PMS_P1;PMS_P2;Temp;Humidity;BMP_temperature;BMP_pressure;BME280_temperature;BME280_humidity;BME280_pressure;Samples;Min_cycle;Max_cycle;Signal;HPM_P1;HPM_P2
2022/08/19 00:01:38;;;;;;;;;28.00;27.00;;;;;28.67;49.33;98257.16;6207065;28;96890;-57
2022/08/19 00:04:46;;;;;;;;;31.25;30.00;;;;;28.63;48.98;98270.94;6274282;27;98024;-56
2022/08/19 00:07:50;;;;;;;;;28.00;26.40;;;;;28.62;48.89;98260.19;6207121;28;98079;-55
2022/08/19 00:10:53;;;;;;;;;28.40;27.00;;;;;28.49;48.94;98242.81;6206429;28;97345;-54
2022/08/19 00:13:57;;;;;;;;;28.00;26.60;;;;;28.61;49.38;98266.88;6207780;28;97476;-56
2022/08/19 00:17:02;;;;;;;;;28.00;27.00;;;;;28.59;49.50;98266.47;6207448;28;96460;-55
2022/08/19 00:20:10;;;;;;;;;29.25;29.00;;;;;28.56;49.10;98261.59;6207528;28;97442;-54
2022/08/19 00:23:14;;;;;;;;;24.50;24.50;;;;;28.53;49.59;98265.91;6206815;28;98239;-56
2022/08/19 00:26:18;;;;;;;;;34.00;30.00;;;;;28.50;49.33;98268.56;6207053;28;98041;-56
2022/08/19 00:29:23;;;;;;;;;29.00;28.60;;;;;28.45;49.34;98264.06;6208320;28;96940;-53
2022/08/19 00:32:27;;;;;;;;;32.40;30.00;;;;;28.38;49.74;98261.94;6207840;28;97540;-55
2022/08/19 00:35:33;;;;;;;;;28.80;28.00;;;;;28.34;49.68;98260.22;6207630;28;97411;-54
2022/08/19 00:38:37;;;;;;;;;35.00;31.00;;;;;28.30;50.04;98256.53;6206536;28;96569;-53
2022/08/19 00:41:41;;;;;;;;;28.00;26.60;;;;;28.27;49.83;98260.81;6207660;28;97100;-57
2022/08/19 00:44:45;;;;;;;;;29.00;28.60;;;;;28.24;50.20;98256.00;6206946;28;96946;-53
2022/08/19 00:47:48;;;;;;;;;30.00;28.00;;;;;28.19;50.50;98258.19;6207504;28;97422;-57
2022/08/19 00:50:55;;;;;;;;;28.50;27.00;;;;;28.17;50.22;98263.28;6207100;28;96452;-55
2022/08/19 00:54:00;;;;;;;;;28.80;26.00;;;;;28.15;50.28;98260.06;6207794;28;97497;-57
2022/08/19 00:57:07;;;;;;;;;29.20;27.40;;;;;28.13;50.40;98257.63;6205412;28;96966;-57
2022/08/19 01:00:15;;;;;;;;;29.20;29.20;;;;;28.12;50.15;98249.66;6199660;28;97103;-56
2022/08/19 01:03:20;;;;;;;;;31.75;30.00;;;;;28.07;50.36;98239.63;6272752;27;96656;-56
2022/08/19 01:06:26;;;;;;;;;30.00;29.00;;;;;28.05;50.56;98239.19;6207094;28;97466;-57
2022/08/19 01:09:30;;;;;;;;;30.00;28.00;;;;;27.89;50.67;98219.72;6209780;28;97427;-55
2022/08/19 01:12:34;;;;;;;;;34.25;32.00;;;;;27.91;50.91;98224.88;6210652;28;97263;-57
2022/08/19 01:15:44;;;;;;;;;29.50;28.00;;;;;27.98;51.21;98239.75;6210047;28;96806;-57
2022/08/19 01:18:47;;;;;;;;;30.00;28.60;;;;;27.99;50.90;98233.06;6210043;28;97624;-60
2022/08/19 01:21:59;;;;;;;;;32.00;30.00;;;;;27.98;51.10;98231.44;6209966;28;97401;-56
2022/08/19 01:25:28;;;;;;;;;34.60;31.00;;;;;27.96;50.73;98227.41;6210942;28;96860;-59
2022/08/19 01:28:32;;;;;;;;;27.40;27.00;;;;;27.93;51.02;98226.16;6210830;28;97031;-53
2022/08/19 01:31:44;;;;;;;;;29.00;28.20;;;;;27.91;50.98;98217.38;6209684;28;97271;-55
2022/08/19 01:34:47;;;;;;;;;28.80;27.80;;;;;27.90;50.64;98220.53;6210451;28;97412;-53
2022/08/19 01:37:53;;;;;;;;;24.50;22.50;;;;;27.88;50.89;98201.47;6210436;28;97615;-56
2022/08/19 01:40:58;;;;;;;;;27.20;26.20;;;;;27.90;51.12;98209.44;6210574;28;97395;-57
2022/08/19 01:44:04;;;;;;;;;33.00;30.40;;;;;27.90;50.97;98204.72;6209801;28;97441;-57
2022/08/19 01:47:21;;;;;;;;;34.80;30.80;;;;;27.91;51.06;98219.34;6209760;28;97222;-55
2022/08/19 01:50:25;;;;;;;;;30.00;29.00;;;;;27.89;50.75;98224.44;6276398;27;96676;-55
2022/08/19 01:53:29;;;;;;;;;34.00;32.00;;;;;27.84;51.36;98225.50;6210498;28;97805;-57
2022/08/19 01:56:38;;;;;;;;;32.00;29.00;;;;;27.68;51.29;98198.88;6209946;27;98012;-56
2022/08/19 01:59:43;;;;;;;;;30.00;28.00;;;;;27.64;51.26;98189.66;6295549;27;96804;-56
2022/08/19 02:02:47;;;;;;;;;33.00;31.60;;;;;27.80;51.05;98223.78;6210158;28;97389;-54
2022/08/19 02:05:56;;;;;;;;;27.40;24.80;;;;;27.78;51.04;98220.53;6210475;28;96947;-56
2022/08/19 02:09:00;;;;;;;;;37.60;33.00;;;;;27.80;51.14;98216.28;6210179;28;97477;-53
2022/08/19 02:12:06;;;;;;;;;36.40;32.80;;;;;27.79;50.93;98217.44;6216688;27;97627;-53
2022/08/19 02:15:11;;;;;;;;;22.80;18.80;;;;;27.75;51.26;98222.06;6210822;27;97394;-58
2022/08/19 02:18:14;;;;;;;;;28.20;27.20;;;;;27.73;51.37;98212.47;6209929;27;98025;-54
2022/08/19 02:21:20;;;;;;;;;31.50;30.00;;;;;27.73;51.55;98204.16;6198121;28;97661;-54
2022/08/19 02:24:23;;;;;;;;;29.20;27.20;;;;;27.74;51.33;98205.78;6207612;28;97557;-54
2022/08/19 02:27:28;;;;;;;;;30.25;28.25;;;;;27.73;51.27;98201.41;6210207;27;97479;-56
2022/08/19 02:30:33;;;;;;;;;37.00;32.00;;;;;27.72;51.46;98197.00;6210459;28;96645;-56
2022/08/19 02:33:36;;;;;;;;;25.25;22.75;;;;;27.71;51.48;98198.97;6210025;28;96927;-59
2022/08/19 02:36:39;;;;;;;;;33.75;31.75;;;;;27.68;51.60;98194.16;6276041;27;97318;-58
2022/08/19 02:39:43;;;;;;;;;38.50;33.00;;;;;27.68;51.49;98209.97;6208964;28;96608;-56
2022/08/19 02:42:48;;;;;;;;;34.00;32.00;;;;;27.62;51.35;98205.81;6210230;28;96928;-56
2022/08/19 02:45:52;;;;;;;;;26.20;24.80;;;;;27.57;51.56;98215.97;6209752;28;97012;-58
2022/08/19 02:48:59;;;;;;;;;30.60;29.00;;;;;27.54;51.61;98205.63;6208622;27;97384;-55
2022/08/19 02:52:03;;;;;;;;;29.00;28.50;;;;;27.53;52.01;98204.00;6209558;28;97258;-59
2022/08/19 02:55:07;;;;;;;;;28.60;27.80;;;;;27.50;51.96;98204.69;6209729;28;97054;-54
2022/08/19 02:58:13;;;;;;;;;28.00;26.00;;;;;27.52;52.11;98198.78;6209430;28;97179;-53
2022/08/19 03:01:21;;;;;;;;;32.00;30.00;;;;;27.49;51.72;98213.34;6207493;28;98023;-51
2022/08/19 03:04:25;;;;;;;;;34.00;31.00;;;;;27.46;52.05;98217.59;6209998;28;96817;-52
2022/08/19 03:07:28;;;;;;;;;36.50;33.00;;;;;27.44;51.79;98213.56;6209570;28;97390;-55
2022/08/19 03:10:31;;;;;;;;;33.00;30.00;;;;;27.39;52.19;98216.56;6231568;27;97436;-56
2022/08/19 03:13:36;;;;;;;;;34.00;30.00;;;;;27.37;52.12;98222.44;6206212;28;96904;-57
2022/08/19 03:16:44;;;;;;;;;29.80;28.80;;;;;27.35;52.31;98227.53;6205298;28;96999;-55
2022/08/19 03:19:47;;;;;;;;;30.67;29.00;;;;;27.37;51.92;98227.97;6251687;27;97484;-58
2022/08/19 03:22:51;;;;;;;;;32.67;30.00;;;;;27.37;52.10;98227.97;6203796;28;96620;-57
2022/08/19 03:25:55;;;;;;;;;30.40;27.60;;;;;27.40;52.21;98218.19;6212765;27;96751;-57
2022/08/19 03:29:19;;;;;;;;;39.40;35.00;;;;;27.40;52.24;98230.06;6212874;27;97330;-58
2022/08/19 03:32:33;;;;;;;;;26.00;25.00;;;;;27.40;52.41;98220.94;6199970;28;97219;-58
2022/08/19 03:35:37;;;;;;;;;31.60;29.40;;;;;27.41;52.16;98220.59;6272645;27;97314;-59
2022/08/19 03:38:43;;;;;;;;;33.00;30.00;;;;;27.42;52.37;98224.16;6197841;28;97935;-57
2022/08/19 03:41:49;;;;;;;;;30.00;27.20;;;;;27.43;51.79;98221.06;6182957;28;98023;-56
2022/08/19 03:45:14;;;;;;;;;27.80;27.00;;;;;27.46;52.35;98231.44;6185142;28;97397;-56
2022/08/19 03:48:17;;;;;;;;;31.00;29.50;;;;;27.49;51.97;98241.03;6190973;28;97000;-54
2022/08/19 03:51:24;;;;;;;;;30.00;28.00;;;;;27.49;52.29;98235.50;6198214;28;97382;-57
2022/08/19 03:54:33;;;;;;;;;29.75;28.75;;;;;27.47;52.44;98243.31;6191860;28;97265;-57
2022/08/19 03:57:37;;;;;;;;;26.60;26.00;;;;;27.50;51.93;98232.38;6221637;27;98091;-55
2022/08/19 04:00:44;;;;;;;;;37.00;32.75;;;;;27.42;51.93;98236.03;6200709;27;97440;-57
2022/08/19 04:03:49;;;;;;;;;33.00;30.40;;;;;27.51;51.63;98233.19;6185125;28;97469;-57
2022/08/19 04:06:52;;;;;;;;;29.40;27.00;;;;;27.51;51.85;98228.44;6203513;28;97246;-58
2022/08/19 04:09:56;;;;;;;;;25.00;24.75;;;;;27.43;52.29;98212.75;6206319;28;96899;-57
2022/08/19 04:12:59;;;;;;;;;31.75;29.00;;;;;27.51;52.10;98228.44;6201134;28;97394;-55
2022/08/19 04:16:05;;;;;;;;;35.67;32.00;;;;;27.51;52.10;98222.91;6204571;28;98866;-55
2022/08/19 04:19:08;;;;;;;;;37.60;33.00;;;;;27.51;52.21;98228.44;6263519;27;96778;-59
2022/08/19 04:22:12;;;;;;;;;31.00;29.00;;;;;27.55;51.90;98231.34;6190508;28;97779;-56
2022/08/19 04:25:15;;;;;;;;;34.50;30.25;;;;;27.53;51.92;98242.75;6184482;28;97189;-58
2022/08/19 04:28:19;;;;;;;;;34.33;31.33;;;;;27.54;52.15;98240.78;6203251;28;96819;-57
2022/08/19 04:31:26;;;;;;;;;34.25;31.25;;;;;27.46;51.91;98231.44;6206585;28;97417;-57
2022/08/19 04:34:30;;;;;;;;;37.00;32.00;;;;;27.53;52.31;98228.09;6203607;28;97997;-54
2022/08/19 04:37:34;;;;;;;;;31.40;29.00;;;;;27.53;52.12;98233.63;6205103;28;97384;-58
2022/08/19 04:44:03;;;;;;;;;31.00;30.00;;;;;27.55;51.66;98234.91;6210728;28;96868;-57
2022/08/19 04:47:08;;;;;;;;;32.00;30.00;;;;;27.57;52.16;98251.16;6211621;27;97436;-54
2022/08/19 04:50:13;;;;;;;;;36.40;32.60;;;;;27.60;51.86;98242.19;6217284;27;97006;-53
2022/08/19 04:53:20;;;;;;;;;34.50;31.50;;;;;27.69;51.89;98251.16;6292203;27;97568;-56
2022/08/19 04:56:26;;;;;;;;;34.00;31.60;;;;;27.82;52.04;98260.22;6238238;27;97253;-57
2022/08/19 04:59:29;;;;;;;;;27.40;27.00;;;;;27.94;51.93;98263.78;6253246;27;97013;-57
2022/08/19 05:02:34;;;;;;;;;30.40;30.00;;;;;28.07;51.42;98275.63;6231387;27;98013;-59
2022/08/19 05:05:40;;;;;;;;;16.80;13.60;;;;;28.20;51.33;98282.00;6210061;28;97418;-56
2022/08/19 05:08:49;;;;;;;;;31.60;30.00;;;;;28.32;51.36;98284.72;6222357;27;97023;-56
2022/08/19 05:11:53;;;;;;;;;32.00;30.60;;;;;28.45;50.84;98289.03;6226902;27;97199;-57
2022/08/19 05:14:56;;;;;;;;;33.40;30.40;;;;;28.58;50.40;98287.84;6275236;27;97680;-60
2022/08/19 05:24:58;;;;;;;;;52.40;44.00;;;;;28.97;49.68;98290.88;6123088;27;96710;-61
2022/08/19 05:28:15;;;;;;;;;53.00;44.00;;;;;29.11;49.38;98292.03;6120282;28;97058;-59
2022/08/19 05:31:18;;;;;;;;;28.75;24.75;;;;;29.21;49.03;98296.25;6208530;27;97286;-59
2022/08/19 05:34:25;;;;;;;;;47.67;40.00;;;;;29.33;48.34;98303.69;6190389;28;97364;-62
2022/08/19 05:37:29;;;;;;;;;47.40;40.00;;;;;29.43;48.04;98298.41;6184736;28;96959;-60
2022/08/19 05:40:35;;;;;;;;;52.00;44.00;;;;;29.58;47.92;98296.78;6251089;27;97742;-58
2022/08/19 05:43:39;;;;;;;;;50.00;42.00;;;;;29.71;48.02;98289.94;6212057;27;97408;-59
2022/08/19 05:46:46;;;;;;;;;51.25;42.00;;;;;29.83;47.66;98295.38;6243110;27;97430;-58
2022/08/19 05:49:51;;;;;;;;;45.00;38.00;;;;;29.91;47.33;98294.38;6204075;28;97111;-59
2022/08/19 05:52:55;;;;;;;;;36.20;32.20;;;;;29.95;46.45;98289.75;6208087;28;96972;-58
2022/08/19 05:55:58;;;;;;;;;45.00;38.00;;;;;29.98;46.71;98288.19;6209904;28;97385;-58
2022/08/19 05:59:02;;;;;;;;;32.00;30.00;;;;;30.06;46.52;98284.38;6209829;28;97852;-55
2022/08/19 06:02:07;;;;;;;;;33.00;30.75;;;;;30.16;46.60;98289.38;6206016;27;96809;-58
2022/08/19 06:05:12;;;;;;;;;31.25;29.00;;;;;30.27;46.14;98287.63;6206592;27;97993;-56
2022/08/19 06:08:18;;;;;;;;;39.60;34.80;;;;;30.38;46.24;98290.63;6206153;28;97087;-56
2022/08/19 06:11:23;;;;;;;;;33.60;31.20;;;;;30.44;45.64;98291.94;6221498;27;97355;-58
2022/08/19 06:14:31;;;;;;;;;35.50;33.00;;;;;30.52;46.13;98293.72;6204886;28;97469;-55
2022/08/19 06:17:35;;;;;;;;;35.00;32.00;;;;;30.54;46.13;98274.69;6209962;27;97635;-56
2022/08/19 06:20:40;;;;;;;;;32.00;31.00;;;;;30.78;45.54;98288.28;6223167;27;97358;-56
2022/08/19 06:23:59;;;;;;;;;26.00;24.75;;;;;30.90;45.06;98292.84;6207407;28;96864;-57
2022/08/19 06:27:05;;;;;;;;;32.00;30.00;;;;;31.03;45.13;98291.53;6216509;27;96920;-56
2022/08/19 06:30:09;;;;;;;;;30.40;29.40;;;;;31.21;44.79;98305.75;6206521;27;97628;-54
2022/08/19 06:33:13;;;;;;;;;26.75;23.75;;;;;31.39;44.93;98304.06;6208668;28;96545;-58
2022/08/19 06:36:22;;;;;;;;;28.25;27.00;;;;;31.57;44.36;98304.41;6277802;27;96660;-58
2022/08/19 06:39:32;;;;;;;;;33.75;30.00;;;;;31.75;44.34;98305.47;6206325;28;97496;-58
2022/08/19 06:42:38;;;;;;;;;29.40;27.00;;;;;31.93;43.82;98302.94;6195699;28;97367;-58
2022/08/19 06:45:47;;;;;;;;;29.00;27.60;;;;;32.09;42.81;98312.75;6197110;28;97222;-56
2022/08/19 06:48:53;;;;;;;;;29.00;27.00;;;;;32.25;42.75;98307.00;6195197;28;96624;-56
2022/08/19 06:51:59;;;;;;;;;28.60;26.60;;;;;32.39;42.06;98315.56;6195445;28;97421;-54
2022/08/19 06:55:04;;;;;;;;;28.20;25.20;;;;;32.50;42.09;98318.47;6196957;28;97220;-54
2022/08/19 06:58:09;;;;;;;;;27.40;24.60;;;;;32.67;42.29;98323.47;6194640;28;96809;-57
2022/08/19 07:01:12;;;;;;;;;27.20;26.20;;;;;32.84;40.93;98330.47;6195348;28;96996;-55
2022/08/19 07:04:17;;;;;;;;;28.60;26.60;;;;;32.97;41.39;98340.97;6195427;28;97258;-54
2022/08/19 07:07:22;;;;;;;;;26.00;24.00;;;;;33.13;40.64;98337.16;6219610;27;96749;-58
2022/08/19 07:10:26;;;;;;;;;27.67;26.67;;;;;33.29;40.59;98344.09;6196476;28;97403;-55
2022/08/19 07:13:29;;;;;;;;;28.00;25.50;;;;;33.46;39.74;98346.25;6195852;28;97427;-56
2022/08/19 07:16:33;;;;;;;;;27.60;26.60;;;;;33.62;40.01;98340.41;6247571;27;97916;-56
2022/08/19 07:19:38;;;;;;;;;29.00;28.00;;;;;33.75;39.01;98343.72;6195556;27;97330;-56
2022/08/19 07:22:43;;;;;;;;;30.00;29.00;;;;;33.89;39.21;98341.03;6196622;27;96540;-58
2022/08/19 07:25:46;;;;;;;;;27.00;26.75;;;;;34.05;39.44;98344.34;6193126;28;96682;-58
2022/08/19 07:28:56;;;;;;;;;26.60;25.00;;;;;34.19;39.35;98333.25;6195049;28;96902;-58
2022/08/19 07:32:00;;;;;;;;;27.00;26.00;;;;;34.34;39.43;98336.94;6193783;28;97178;-56
2022/08/19 07:35:05;;;;;;;;;27.00;26.00;;;;;34.51;39.41;98338.97;6195983;28;97622;-55
2022/08/19 07:38:10;;;;;;;;;24.50;23.50;;;;;34.70;38.76;98341.50;6254915;27;97461;-58
2022/08/19 07:41:17;;;;;;;;;22.80;22.00;;;;;34.90;38.17;98339.16;6238641;27;96616;-59
2022/08/19 07:44:22;;;;;;;;;26.00;24.00;;;;;35.06;37.92;98341.59;6199512;27;97493;-57
2022/08/19 07:47:27;;;;;;;;;24.00;23.40;;;;;35.26;38.03;98344.84;6214553;27;97975;-54
2022/08/19 07:50:50;;;;;;;;;20.20;20.00;;;;;35.51;37.32;98346.47;6241671;27;96883;-56
2022/08/19 07:53:55;;;;;;;;;21.20;19.80;;;;;35.75;37.07;98350.50;6227339;27;97140;-58
2022/08/19 07:56:59;;;;;;;;;24.40;22.40;;;;;36.00;37.39;98350.47;6234612;27;97165;-56
2022/08/19 08:00:04;;;;;;;;;21.80;21.80;;;;;36.25;36.27;98354.06;6199728;28;97436;-56
2022/08/19 08:03:14;;;;;;;;;24.40;23.00;;;;;36.49;36.53;98363.63;6206142;28;97492;-56
2022/08/19 08:09:43;;;;;;;;;23.00;22.20;;;;;36.72;35.94;98335.06;6208227;28;97150;-57
2022/08/19 08:12:52;;;;;;;;;22.75;20.75;;;;;37.11;35.54;98368.59;6208641;28;96907;-58
2022/08/19 08:16:13;;;;;;;;;21.80;20.20;;;;;37.30;34.70;98366.03;6251653;27;96934;-59
2022/08/19 08:19:18;;;;;;;;;22.40;20.40;;;;;37.45;34.61;98378.00;6337907;27;96528;-55
2022/08/19 08:25:50;;;;;;;;;20.33;20.33;;;;;37.84;33.59;98369.25;6290754;27;96792;-56
2022/08/19 08:28:54;;;;;;;;;20.00;19.00;;;;;38.06;34.09;98372.72;6204972;28;97103;-57
2022/08/19 08:31:58;;;;;;;;;21.00;19.40;;;;;38.23;33.01;98373.72;6203126;28;96643;-58
2022/08/19 08:35:02;;;;;;;;;25.60;22.60;;;;;38.36;32.81;98381.25;6204876;28;97348;-58
2022/08/19 08:38:05;;;;;;;;;21.00;19.00;;;;;38.51;32.99;98379.88;6204831;28;97318;-56
2022/08/19 08:41:23;;;;;;;;;18.00;18.00;;;;;38.67;33.62;98382.09;6203910;28;97951;-57
2022/08/19 08:44:40;;;;;;;;;20.50;19.00;;;;;38.73;32.69;98374.00;6205010;28;97371;-55
2022/08/19 08:47:49;;;;;;;;;19.40;18.40;;;;;38.87;32.42;98360.50;6203931;28;97305;-61
2022/08/19 08:50:55;;;;;;;;;23.00;21.00;;;;;39.05;32.01;98371.56;6201376;28;98218;-57
2022/08/19 08:53:59;;;;;;;;;18.00;17.00;;;;;39.08;31.75;98370.72;6205328;28;97426;-59
2022/08/19 08:57:11;;;;;;;;;19.60;18.60;;;;;39.17;31.72;98371.00;6199553;28;97958;-57
2022/08/19 09:00:18;;;;;;;;;20.00;19.00;;;;;39.31;32.13;98364.34;6199518;28;97098;-55
2022/08/19 09:03:25;;;;;;;;;20.00;20.00;;;;;39.48;31.56;98366.13;6207030;28;97089;-55
2022/08/19 09:06:40;;;;;;;;;20.00;19.00;;;;;39.66;31.06;98360.19;6249548;27;97749;-56
2022/08/19 09:09:47;;;;;;;;;21.00;19.50;;;;;39.84;30.93;98366.34;6202047;28;97366;-56
2022/08/19 09:13:06;;;;;;;;;22.00;21.00;;;;;39.98;31.32;98368.91;6200039;28;97197;-60
2022/08/19 09:16:15;;;;;;;;;21.00;19.00;;;;;40.14;30.50;98368.22;6276787;27;97663;-56
2022/08/19 09:19:18;;;;;;;;;20.80;19.80;;;;;40.24;30.41;98372.91;6240333;27;97411;-55
2022/08/19 09:22:26;;;;;;;;;21.00;19.00;;;;;40.36;29.62;98366.63;6227452;27;96872;-56
2022/08/19 09:25:30;;;;;;;;;21.00;19.25;;;;;40.48;30.06;98354.69;6221399;27;97381;-53
2022/08/19 09:28:36;;;;;;;;;21.00;19.00;;;;;40.59;29.51;98357.28;6206183;28;97326;-58
2022/08/19 09:31:41;;;;;;;;;24.25;22.25;;;;;40.71;30.20;98355.88;6196523;28;96643;-56
2022/08/19 09:34:45;;;;;;;;;19.00;19.00;;;;;40.84;29.48;98348.31;6189184;28;96740;-53
2022/08/19 09:37:54;;;;;;;;;21.60;20.00;;;;;40.94;28.96;98350.91;6186310;28;96438;-59
2022/08/19 09:41:05;;;;;;;;;26.00;22.40;;;;;41.04;29.49;98346.28;6190806;28;97768;-54
2022/08/19 09:44:12;;;;;;;;;20.50;20.00;;;;;41.10;29.03;98348.13;6208791;28;96463;-56
2022/08/19 09:47:16;;;;;;;;;19.60;18.60;;;;;41.20;28.79;98345.53;6252464;27;97123;-58
2022/08/19 09:50:23;;;;;;;;;24.40;22.00;;;;;41.31;28.56;98335.53;6255760;27;96447;-55
2022/08/19 09:53:28;;;;;;;;;23.00;21.00;;;;;41.43;28.59;98332.00;6209656;27;98019;-58
2022/08/19 09:56:33;;;;;;;;;21.00;18.33;;;;;41.48;28.39;98327.88;6307964;27;97068;-56
2022/08/19 09:59:40;;;;;;;;;23.25;21.00;;;;;41.61;27.78;98337.25;6291547;27;97686;-57
2022/08/19 10:02:43;;;;;;;;;22.20;21.00;;;;;41.62;27.77;98333.19;6258254;27;96896;-56
2022/08/19 10:05:50;;;;;;;;;22.00;20.00;;;;;41.68;27.05;98330.63;6303538;27;97504;-60
2022/08/19 10:08:57;;;;;;;;;20.50;20.00;;;;;41.78;28.02;98327.50;6278005;27;97357;-56
2022/08/19 10:12:01;;;;;;;;;20.40;19.40;;;;;41.83;27.75;98326.19;6255980;27;96912;-54
2022/08/19 10:15:08;;;;;;;;;21.00;19.00;;;;;41.84;27.23;98324.91;6276635;27;97166;-58
2022/08/19 10:18:12;;;;;;;;;22.60;21.00;;;;;41.87;27.77;98316.38;6222311;27;97509;-54
2022/08/19 10:21:18;;;;;;;;;20.00;20.00;;;;;42.07;27.61;98321.13;6209061;28;97709;-59
2022/08/19 10:24:24;;;;;;;;;23.60;21.60;;;;;42.16;27.27;98321.25;6210428;27;96848;-58
2022/08/19 10:27:27;;;;;;;;;19.80;19.00;;;;;42.27;26.67;98313.31;6243007;27;97655;-57
2022/08/19 10:30:36;;;;;;;;;18.60;18.00;;;;;42.31;26.16;98311.16;6260807;27;97720;-59
2022/08/19 10:33:41;;;;;;;;;19.50;19.00;;;;;42.27;25.16;98319.75;6250770;27;97684;-59
2022/08/19 10:36:58;;;;;;;;;19.80;19.20;;;;;42.34;25.81;98310.25;6263930;27;98095;-57
2022/08/19 10:40:05;;;;;;;;;21.00;19.40;;;;;42.34;24.55;98318.75;6209684;28;97428;-57
2022/08/19 10:43:08;;;;;;;;;20.00;19.00;;;;;42.33;25.39;98315.13;6209569;28;96632;-55
2022/08/19 10:46:15;;;;;;;;;19.00;18.60;;;;;42.45;25.16;98327.75;6265901;27;96793;-54
2022/08/19 10:49:20;;;;;;;;;19.40;18.00;;;;;42.60;25.34;98331.75;6203364;28;97993;-54
2022/08/19 10:52:36;;;;;;;;;20.40;20.40;;;;;42.66;24.97;98312.94;6209091;28;97588;-57
2022/08/19 10:59:02;;;;;;;;;20.00;19.00;;;;;42.88;24.54;98323.66;6270879;27;97881;-58
2022/08/19 11:02:10;;;;;;;;;20.60;19.60;;;;;42.93;24.69;98325.94;6261648;27;97512;-55
2022/08/19 11:05:14;;;;;;;;;19.00;18.00;;;;;42.93;24.27;98326.72;6254739;27;97449;-59
2022/08/19 11:08:18;;;;;;;;;20.00;18.00;;;;;42.81;24.46;98321.84;6263205;27;97195;-57
2022/08/19 11:11:26;;;;;;;;;20.00;18.00;;;;;42.71;24.94;98314.47;6220645;27;97531;-57
2022/08/19 11:14:30;;;;;;;;;19.80;18.40;;;;;42.65;24.87;98302.84;6208281;28;97457;-54
2022/08/19 11:17:40;;;;;;;;;19.50;19.50;;;;;42.61;25.12;98309.88;6208709;28;97391;-56
2022/08/19 11:20:43;;;;;;;;;18.60;18.00;;;;;42.64;24.81;98298.44;6241069;27;97394;-58
2022/08/19 11:23:48;;;;;;;;;21.00;19.60;;;;;42.68;24.17;98299.13;6220718;27;96565;-60
2022/08/19 11:26:56;;;;;;;;;19.00;18.80;;;;;42.62;25.22;98295.22;6220201;27;97389;-55
2022/08/19 11:30:00;;;;;;;;;20.20;19.00;;;;;42.53;23.67;98297.94;6241535;27;96947;-60
2022/08/19 11:33:05;;;;;;;;;19.60;18.00;;;;;42.42;24.20;98291.00;6195059;28;96440;-58
2022/08/19 11:36:09;;;;;;;;;9.50;9.50;;;;;42.29;23.29;98286.09;6226624;27;97658;-58
2022/08/19 11:39:20;;;;;;;;;17.00;17.00;;;;;42.24;24.49;98277.31;6250186;27;96628;-57
2022/08/19 11:45:41;;;;;;;;;18.50;18.00;;;;;42.21;24.06;98281.06;6215168;27;97488;-61
2022/08/19 11:48:45;;;;;;;;;20.00;18.40;;;;;42.09;24.36;98270.47;6236202;27;97647;-58
2022/08/19 11:51:50;;;;;;;;;18.40;17.40;;;;;42.00;25.35;98278.81;6222687;27;96803;-55
2022/08/19 11:54:55;;;;;;;;;19.00;18.00;;;;;42.04;25.51;98271.00;6203400;28;97167;-60
2022/08/19 11:57:59;;;;;;;;;17.00;16.00;;;;;41.96;24.46;98273.25;6215584;27;97165;-57
2022/08/19 12:01:06;;;;;;;;;18.00;18.00;;;;;41.83;24.85;98278.06;6204134;28;97538;-60
2022/08/19 12:04:11;;;;;;;;;19.00;18.00;;;;;41.77;25.15;98280.63;6277736;27;96770;-57
2022/08/19 12:07:15;;;;;;;;;21.00;20.00;;;;;41.87;25.62;98281.59;6195256;28;96939;-56
2022/08/19 12:10:19;;;;;;;;;18.00;18.00;;;;;42.02;25.96;98293.34;6205936;28;97545;-58
2022/08/19 12:13:28;;;;;;;;;19.40;19.40;;;;;42.14;25.28;98284.09;6207219;28;97109;-57
2022/08/19 12:16:33;;;;;;;;;19.40;19.40;;;;;42.11;26.17;98282.94;6224992;27;96842;-59
2022/08/19 12:19:40;;;;;;;;;22.00;20.40;;;;;42.01;24.48;98269.09;6304477;27;98783;-63
2022/08/19 12:22:44;;;;;;;;;20.00;18.00;;;;;41.77;24.46;98268.50;6237498;27;99848;-58
2022/08/19 12:25:51;;;;;;;;;16.00;16.00;;;;;41.67;24.91;98278.88;6232416;27;96925;-57
2022/08/19 12:28:55;;;;;;;;;18.40;17.40;;;;;41.57;24.28;98279.94;6279837;27;97763;-58
2022/08/19 12:32:01;;;;;;;;;18.00;17.00;;;;;41.47;25.20;98278.97;6265172;27;97134;-59
2022/08/19 12:35:11;;;;;;;;;18.60;17.60;;;;;41.28;23.89;98285.50;6280320;27;98566;-60
2022/08/19 12:38:15;;;;;;;;;20.00;19.00;;;;;41.16;25.02;98266.38;6207641;27;97500;-58
2022/08/19 12:41:21;;;;;;;;;21.00;20.00;;;;;41.08;24.02;98262.97;6206900;28;96734;-55
2022/08/19 12:44:25;;;;;;;;;17.20;17.00;;;;;41.13;25.59;98260.84;6206009;28;97087;-55
2022/08/19 12:47:31;;;;;;;;;19.50;19.00;;;;;41.23;24.82;98259.78;6203003;28;97765;-60
2022/08/19 12:50:36;;;;;;;;;20.50;19.50;;;;;41.27;24.44;98257.66;6283616;27;99497;-59
2022/08/19 12:53:40;;;;;;;;;17.40;17.40;;;;;41.34;24.04;98251.81;6197885;27;97953;-56
2022/08/19 12:56:44;;;;;;;;;19.40;18.40;;;;;41.44;24.14;98257.25;6195972;28;96825;-59
2022/08/19 12:59:48;;;;;;;;;16.20;16.00;;;;;41.45;24.34;98252.34;6220309;27;97454;-57
2022/08/19 13:02:53;;;;;;;;;19.00;18.60;;;;;41.20;24.71;98229.56;6236403;27;97155;-59
2022/08/19 13:05:58;;;;;;;;;16.00;16.00;;;;;41.33;25.05;98255.88;6248016;27;97481;-59
2022/08/19 13:09:01;;;;;;;;;18.67;17.00;;;;;41.36;25.25;98252.97;6230563;27;97786;-60
2022/08/19 13:12:07;;;;;;;;;16.25;16.25;;;;;41.42;24.64;98256.06;6260609;27;97046;-56
2022/08/19 13:15:11;;;;;;;;;16.20;15.20;;;;;41.48;24.49;98257.16;6208186;27;97083;-56
2022/08/19 13:18:17;;;;;;;;;17.00;16.00;;;;;41.55;24.80;98256.16;6209085;28;97145;-55
2022/08/19 13:21:24;;;;;;;;;16.60;16.00;;;;;41.60;24.57;98244.28;6208828;27;98106;-59
2022/08/19 13:24:28;;;;;;;;;17.00;16.40;;;;;41.55;23.04;98248.44;6277249;27;97120;-58
2022/08/19 13:27:36;;;;;;;;;19.40;18.00;;;;;41.58;24.46;98247.59;6209422;28;97021;-57
2022/08/19 13:34:00;;;;;;;;;17.00;16.67;;;;;41.54;23.44;98237.59;6195586;28;97257;-57
2022/08/19 13:37:08;;;;;;;;;19.00;18.00;;;;;41.45;22.72;98247.50;6201340;28;97453;-59
2022/08/19 13:40:17;;;;;;;;;15.80;14.00;;;;;41.14;22.24;98214.34;6210829;28;98337;-57
2022/08/19 13:43:24;;;;;;;;;15.00;15.00;;;;;41.18;22.44;98234.84;6210793;28;97463;-59
2022/08/19 13:46:30;;;;;;;;;16.00;15.00;;;;;41.03;22.07;98228.75;6210605;28;97560;-59
2022/08/19 13:49:34;;;;;;;;;19.00;18.00;;;;;40.95;23.80;98222.47;6210433;28;96483;-56
2022/08/19 13:52:40;;;;;;;;;17.00;16.00;;;;;41.01;23.67;98226.31;6209647;28;97620;-60
2022/08/19 13:55:44;;;;;;;;;17.00;16.00;;;;;40.86;24.46;98202.47;6210756;28;97607;-54
2022/08/19 13:58:47;;;;;;;;;17.00;17.00;;;;;40.93;23.96;98209.97;6210562;28;96566;-62
2022/08/19 14:01:51;;;;;;;;;17.75;16.00;;;;;40.93;24.46;98222.09;6209785;28;97505;-58
2022/08/19 14:04:54;;;;;;;;;18.00;17.00;;;;;40.93;24.76;98205.13;6210081;28;96643;-58
2022/08/19 14:08:00;;;;;;;;;15.80;15.20;;;;;40.96;23.87;98206.25;6210428;28;96970;-61
2022/08/19 14:11:04;;;;;;;;;16.60;16.60;;;;;40.98;23.97;98204.59;6209502;28;97499;-55
2022/08/19 14:14:08;;;;;;;;;17.00;15.60;;;;;40.94;24.21;98208.75;6209347;28;97818;-58
2022/08/19 14:17:18;;;;;;;;;15.80;14.20;;;;;40.91;23.03;98206.78;6197661;28;97435;-58
2022/08/19 14:20:23;;;;;;;;;16.00;16.00;;;;;40.82;23.93;98201.75;6209505;28;97423;-55
2022/08/19 14:23:30;;;;;;;;;17.60;16.60;;;;;40.67;23.80;98197.66;6210420;28;97500;-61
2022/08/19 14:26:33;;;;;;;;;16.40;15.00;;;;;40.56;24.27;98199.94;6277340;27;97708;-62
2022/08/19 14:29:37;;;;;;;;;17.50;15.50;;;;;40.42;24.42;98191.78;6214231;27;97432;-59
2022/08/19 14:32:42;;;;;;;;;14.20;14.20;;;;;40.36;24.57;98188.69;6271562;27;99874;-56
2022/08/19 14:35:46;;;;;;;;;14.00;14.00;;;;;40.15;24.32;98181.44;6210170;28;96694;-57
2022/08/19 14:38:50;;;;;;;;;16.20;16.00;;;;;40.08;24.34;98195.69;6199805;28;97164;-55
2022/08/19 14:41:54;;;;;;;;;15.40;15.00;;;;;40.06;24.19;98192.53;6200954;28;97442;-58